sensor_id;sensor_type;location;lat;lon;timestamp;P1;durP1;ratioP1;P2;durP2;ratioP2
29030;SDS011;16122;50.236;11.734;2022-10-16T00:01:07;0.80;;;0.70;;
29030;SDS011;16122;50.236;11.734;2022-10-16T00:03:36;0.80;;;0.80;;
29030;SDS011;16122;50.236;11.734;2022-10-16T00:06:02;1.10;;;0.77;;
29030;SDS011;16122;50.236;11.734;2022-10-16T00:08:29;0.80;;;0.70;;
29030;SDS011;16122;50.236;11.734;2022-10-16T00:11:03;1.20;;;0.60;;
29030;SDS011;16122;50.236;11.734;2022-10-16T00:13:31;1.00;;;0.83;;
29030;SDS011;16122;50.236;11.734;2022-10-16T00:15:59;1.57;;;0.90;;
29030;SDS011;16122;50.236;11.734;2022-10-16T00:18:26;0.70;;;0.70;;
29030;SDS011;16122;50.236;11.734;2022-10-16T00:20:53;0.80;;;0.70;;
29030;SDS011;16122;50.236;11.734;2022-10-16T00:23:20;1.43;;;0.80;;
29030;SDS011;16122;50.236;11.734;2022-10-16T00:25:59;1.90;;;0.70;;
29030;SDS011;16122;50.236;11.734;2022-10-16T00:28:29;1.00;;;0.70;;
29030;SDS011;16122;50.236;11.734;2022-10-16T00:30:56;0.80;;;0.60;;
29030;SDS011;16122;50.236;11.734;2022-10-16T00:33:23;1.00;;;0.73;;
29030;SDS011;16122;50.236;11.734;2022-10-16T00:35:49;0.80;;;0.80;;
29030;SDS011;16122;50.236;11.734;2022-10-16T00:38:15;0.70;;;0.70;;
29030;SDS011;16122;50.236;11.734;2022-10-16T00:40:42;0.70;;;0.60;;
29030;SDS011;16122;50.236;11.734;2022-10-16T00:43:54;1.03;;;0.60;;
29030;SDS011;16122;50.236;11.734;2022-10-16T00:46:00;0.70;;;0.63;;
29030;SDS011;16122;50.236;11.734;2022-10-16T00:48:27;1.70;;;0.70;;
29030;SDS011;16122;50.236;11.734;2022-10-16T00:50:53;0.90;;;0.67;;
29030;SDS011;16122;50.236;11.734;2022-10-16T00:53:19;1.80;;;0.90;;
29030;SDS011;16122;50.236;11.734;2022-10-16T00:55:45;0.70;;;0.63;;
29030;SDS011;16122;50.236;11.734;2022-10-16T00:58:11;1.73;;;0.77;;
29030;SDS011;16122;50.236;11.734;2022-10-16T01:00:38;0.80;;;0.80;;
29030;SDS011;16122;50.236;11.734;2022-10-16T01:03:21;0.80;;;0.70;;
29030;SDS011;16122;50.236;11.734;2022-10-16T01:08:44;0.70;;;0.60;;
29030;SDS011;16122;50.236;11.734;2022-10-16T01:11:37;1.77;;;0.80;;
29030;SDS011;16122;50.236;11.734;2022-10-16T01:14:42;0.70;;;0.60;;
29030;SDS011;16122;50.236;11.734;2022-10-16T01:17:28;1.17;;;0.70;;
29030;SDS011;16122;50.236;11.734;2022-10-16T01:22:54;0.83;;;0.80;;
29030;SDS011;16122;50.236;11.734;2022-10-16T01:28:34;0.80;;;0.70;;
29030;SDS011;16122;50.236;11.734;2022-10-16T01:31:05;0.90;;;0.70;;
29030;SDS011;16122;50.236;11.734;2022-10-16T01:33:35;0.80;;;0.60;;
29030;SDS011;16122;50.236;11.734;2022-10-16T01:36:12;0.70;;;0.60;;
29030;SDS011;16122;50.236;11.734;2022-10-16T01:38:40;2.10;;;0.80;;
29030;SDS011;16122;50.236;11.734;2022-10-16T01:43:48;0.80;;;0.80;;
29030;SDS011;16122;50.236;11.734;2022-10-16T01:46:18;2.17;;;0.63;;
29030;SDS011;16122;50.236;11.734;2022-10-16T01:48:47;0.80;;;0.60;;
29030;SDS011;16122;50.236;11.734;2022-10-16T01:51:15;0.67;;;0.50;;
29030;SDS011;16122;50.236;11.734;2022-10-16T01:53:43;0.70;;;0.60;;
29030;SDS011;16122;50.236;11.734;2022-10-16T01:56:17;0.80;;;0.70;;
29030;SDS011;16122;50.236;11.734;2022-10-16T01:58:47;0.90;;;0.70;;
29030;SDS011;16122;50.236;11.734;2022-10-16T02:01:18;0.80;;;0.67;;
29030;SDS011;16122;50.236;11.734;2022-10-16T02:03:49;0.80;;;0.70;;
29030;SDS011;16122;50.236;11.734;2022-10-16T02:06:18;0.70;;;0.63;;
29030;SDS011;16122;50.236;11.734;2022-10-16T02:08:44;0.70;;;0.60;;
29030;SDS011;16122;50.236;11.734;2022-10-16T02:11:11;1.00;;;0.77;;
29030;SDS011;16122;50.236;11.734;2022-10-16T02:13:48;0.73;;;0.70;;
29030;SDS011;16122;50.236;11.734;2022-10-16T02:16:18;1.00;;;0.70;;
29030;SDS011;16122;50.236;11.734;2022-10-16T02:18:44;0.70;;;0.70;;
29030;SDS011;16122;50.236;11.734;2022-10-16T02:21:17;0.73;;;0.60;;
29030;SDS011;16122;50.236;11.734;2022-10-16T02:27:03;0.90;;;0.70;;
29030;SDS011;16122;50.236;11.734;2022-10-16T02:29:35;0.90;;;0.60;;
29030;SDS011;16122;50.236;11.734;2022-10-16T02:32:06;0.70;;;0.70;;
29030;SDS011;16122;50.236;11.734;2022-10-16T02:34:35;1.20;;;0.67;;
29030;SDS011;16122;50.236;11.734;2022-10-16T02:37:03;0.70;;;0.60;;
29030;SDS011;16122;50.236;11.734;2022-10-16T02:39:30;0.80;;;0.60;;
29030;SDS011;16122;50.236;11.734;2022-10-16T02:41:56;0.80;;;0.70;;
29030;SDS011;16122;50.236;11.734;2022-10-16T02:44:22;0.70;;;0.70;;
29030;SDS011;16122;50.236;11.734;2022-10-16T02:46:48;0.80;;;0.73;;
29030;SDS011;16122;50.236;11.734;2022-10-16T02:49:14;0.70;;;0.60;;
29030;SDS011;16122;50.236;11.734;2022-10-16T02:51:40;0.60;;;0.60;;
29030;SDS011;16122;50.236;11.734;2022-10-16T02:54:06;0.70;;;0.60;;
29030;SDS011;16122;50.236;11.734;2022-10-16T02:56:32;2.83;;;0.80;;
29030;SDS011;16122;50.236;11.734;2022-10-16T02:58:58;0.70;;;0.70;;
29030;SDS011;16122;50.236;11.734;2022-10-16T03:01:24;0.60;;;0.60;;
29030;SDS011;16122;50.236;11.734;2022-10-16T03:03:50;0.70;;;0.60;;
29030;SDS011;16122;50.236;11.734;2022-10-16T03:06:16;0.60;;;0.50;;
29030;SDS011;16122;50.236;11.734;2022-10-16T03:08:42;0.80;;;0.73;;
29030;SDS011;16122;50.236;11.734;2022-10-16T03:11:07;0.67;;;0.50;;
29030;SDS011;16122;50.236;11.734;2022-10-16T03:13:34;0.70;;;0.60;;
29030;SDS011;16122;50.236;11.734;2022-10-16T03:15:59;0.90;;;0.70;;
29030;SDS011;16122;50.236;11.734;2022-10-16T03:18:25;0.87;;;0.70;;
29030;SDS011;16122;50.236;11.734;2022-10-16T03:20:51;0.67;;;0.60;;
29030;SDS011;16122;50.236;11.734;2022-10-16T03:23:17;0.70;;;0.63;;
29030;SDS011;16122;50.236;11.734;2022-10-16T03:25:43;1.07;;;0.70;;
29030;SDS011;16122;50.236;11.734;2022-10-16T03:28:08;0.70;;;0.60;;
29030;SDS011;16122;50.236;11.734;2022-10-16T03:30:35;0.80;;;0.63;;
29030;SDS011;16122;50.236;11.734;2022-10-16T03:33:00;0.97;;;0.73;;
29030;SDS011;16122;50.236;11.734;2022-10-16T03:35:26;1.07;;;0.70;;
29030;SDS011;16122;50.236;11.734;2022-10-16T03:37:52;0.70;;;0.50;;
29030;SDS011;16122;50.236;11.734;2022-10-16T03:40:18;0.93;;;0.60;;
29030;SDS011;16122;50.236;11.734;2022-10-16T03:42:44;0.80;;;0.57;;
29030;SDS011;16122;50.236;11.734;2022-10-16T03:45:10;0.90;;;0.67;;
29030;SDS011;16122;50.236;11.734;2022-10-16T03:47:36;0.83;;;0.60;;
29030;SDS011;16122;50.236;11.734;2022-10-16T03:50:02;0.70;;;0.60;;
29030;SDS011;16122;50.236;11.734;2022-10-16T03:52:29;0.70;;;0.60;;
29030;SDS011;16122;50.236;11.734;2022-10-16T03:54:55;0.70;;;0.60;;
29030;SDS011;16122;50.236;11.734;2022-10-16T03:57:21;2.17;;;0.60;;
29030;SDS011;16122;50.236;11.734;2022-10-16T03:59:47;0.70;;;0.60;;
29030;SDS011;16122;50.236;11.734;2022-10-16T04:02:12;0.80;;;0.70;;
29030;SDS011;16122;50.236;11.734;2022-10-16T04:04:38;0.70;;;0.70;;
29030;SDS011;16122;50.236;11.734;2022-10-16T04:07:04;0.83;;;0.60;;
29030;SDS011;16122;50.236;11.734;2022-10-16T04:09:30;0.90;;;0.60;;
29030;SDS011;16122;50.236;11.734;2022-10-16T04:11:56;0.70;;;0.60;;
29030;SDS011;16122;50.236;11.734;2022-10-16T04:14:22;0.70;;;0.60;;
29030;SDS011;16122;50.236;11.734;2022-10-16T04:16:48;0.80;;;0.60;;
29030;SDS011;16122;50.236;11.734;2022-10-16T04:19:13;0.77;;;0.70;;
29030;SDS011;16122;50.236;11.734;2022-10-16T04:21:39;0.80;;;0.53;;
29030;SDS011;16122;50.236;11.734;2022-10-16T04:24:05;0.60;;;0.57;;
29030;SDS011;16122;50.236;11.734;2022-10-16T04:26:31;0.80;;;0.50;;
29030;SDS011;16122;50.236;11.734;2022-10-16T04:28:57;0.83;;;0.60;;
29030;SDS011;16122;50.236;11.734;2022-10-16T04:31:23;0.70;;;0.60;;
29030;SDS011;16122;50.236;11.734;2022-10-16T04:33:48;0.60;;;0.50;;
29030;SDS011;16122;50.236;11.734;2022-10-16T04:36:14;0.70;;;0.50;;
29030;SDS011;16122;50.236;11.734;2022-10-16T04:38:40;0.60;;;0.50;;
29030;SDS011;16122;50.236;11.734;2022-10-16T04:41:06;1.83;;;0.60;;
29030;SDS011;16122;50.236;11.734;2022-10-16T04:43:33;0.80;;;0.57;;
29030;SDS011;16122;50.236;11.734;2022-10-16T04:45:59;1.00;;;0.70;;
29030;SDS011;16122;50.236;11.734;2022-10-16T04:48:25;0.70;;;0.50;;
29030;SDS011;16122;50.236;11.734;2022-10-16T04:50:51;0.70;;;0.60;;
29030;SDS011;16122;50.236;11.734;2022-10-16T04:53:18;1.33;;;0.80;;
29030;SDS011;16122;50.236;11.734;2022-10-16T04:55:44;0.60;;;0.57;;
29030;SDS011;16122;50.236;11.734;2022-10-16T04:58:09;0.63;;;0.50;;
29030;SDS011;16122;50.236;11.734;2022-10-16T05:00:36;2.23;;;0.70;;
29030;SDS011;16122;50.236;11.734;2022-10-16T05:03:03;0.80;;;0.70;;
29030;SDS011;16122;50.236;11.734;2022-10-16T05:05:32;0.80;;;0.70;;
29030;SDS011;16122;50.236;11.734;2022-10-16T05:07:58;0.70;;;0.60;;
29030;SDS011;16122;50.236;11.734;2022-10-16T05:10:24;0.70;;;0.50;;
29030;SDS011;16122;50.236;11.734;2022-10-16T05:12:50;0.93;;;0.80;;
29030;SDS011;16122;50.236;11.734;2022-10-16T05:15:16;1.10;;;0.70;;
29030;SDS011;16122;50.236;11.734;2022-10-16T05:17:43;0.93;;;0.87;;
29030;SDS011;16122;50.236;11.734;2022-10-16T05:20:10;0.70;;;0.60;;
29030;SDS011;16122;50.236;11.734;2022-10-16T05:22:37;0.90;;;0.73;;
29030;SDS011;16122;50.236;11.734;2022-10-16T05:25:03;2.30;;;0.70;;
29030;SDS011;16122;50.236;11.734;2022-10-16T05:27:29;0.87;;;0.70;;
29030;SDS011;16122;50.236;11.734;2022-10-16T05:29:55;0.80;;;0.70;;
29030;SDS011;16122;50.236;11.734;2022-10-16T05:32:20;0.90;;;0.70;;
29030;SDS011;16122;50.236;11.734;2022-10-16T05:34:46;0.70;;;0.60;;
29030;SDS011;16122;50.236;11.734;2022-10-16T05:37:12;0.73;;;0.70;;
29030;SDS011;16122;50.236;11.734;2022-10-16T05:39:38;0.70;;;0.60;;
29030;SDS011;16122;50.236;11.734;2022-10-16T05:42:04;0.80;;;0.80;;
29030;SDS011;16122;50.236;11.734;2022-10-16T05:44:31;3.53;;;0.60;;
29030;SDS011;16122;50.236;11.734;2022-10-16T05:46:56;0.80;;;0.60;;
29030;SDS011;16122;50.236;11.734;2022-10-16T05:49:23;2.17;;;0.83;;
29030;SDS011;16122;50.236;11.734;2022-10-16T05:51:49;0.90;;;0.80;;
29030;SDS011;16122;50.236;11.734;2022-10-16T05:54:15;0.60;;;0.50;;
29030;SDS011;16122;50.236;11.734;2022-10-16T05:56:41;0.70;;;0.53;;
29030;SDS011;16122;50.236;11.734;2022-10-16T05:59:07;1.50;;;0.70;;
29030;SDS011;16122;50.236;11.734;2022-10-16T06:01:33;4.93;;;0.70;;
29030;SDS011;16122;50.236;11.734;2022-10-16T06:03:59;1.07;;;0.77;;
29030;SDS011;16122;50.236;11.734;2022-10-16T06:06:25;1.27;;;0.67;;
29030;SDS011;16122;50.236;11.734;2022-10-16T06:08:53;1.13;;;0.60;;
29030;SDS011;16122;50.236;11.734;2022-10-16T06:11:20;2.07;;;0.63;;
29030;SDS011;16122;50.236;11.734;2022-10-16T06:13:49;1.00;;;0.67;;
29030;SDS011;16122;50.236;11.734;2022-10-16T06:16:16;1.97;;;0.60;;
29030;SDS011;16122;50.236;11.734;2022-10-16T06:18:43;0.70;;;0.67;;
29030;SDS011;16122;50.236;11.734;2022-10-16T06:21:14;3.77;;;0.70;;
29030;SDS011;16122;50.236;11.734;2022-10-16T06:23:42;1.30;;;0.70;;
29030;SDS011;16122;50.236;11.734;2022-10-16T06:26:12;1.10;;;0.97;;
29030;SDS011;16122;50.236;11.734;2022-10-16T06:28:40;1.33;;;0.70;;
29030;SDS011;16122;50.236;11.734;2022-10-16T06:31:06;0.70;;;0.70;;
29030;SDS011;16122;50.236;11.734;2022-10-16T06:33:34;1.20;;;0.67;;
29030;SDS011;16122;50.236;11.734;2022-10-16T06:36:05;0.70;;;0.60;;
29030;SDS011;16122;50.236;11.734;2022-10-16T06:38:35;0.70;;;0.70;;
29030;SDS011;16122;50.236;11.734;2022-10-16T06:41:01;1.13;;;0.63;;
29030;SDS011;16122;50.236;11.734;2022-10-16T06:43:28;0.87;;;0.80;;
29030;SDS011;16122;50.236;11.734;2022-10-16T06:46:01;1.30;;;0.90;;
29030;SDS011;16122;50.236;11.734;2022-10-16T06:48:28;1.00;;;0.70;;
29030;SDS011;16122;50.236;11.734;2022-10-16T06:53:30;0.60;;;0.50;;
29030;SDS011;16122;50.236;11.734;2022-10-16T06:55:57;1.83;;;0.90;;
29030;SDS011;16122;50.236;11.734;2022-10-16T06:58:31;0.93;;;0.70;;
29030;SDS011;16122;50.236;11.734;2022-10-16T07:00:57;0.80;;;0.80;;
29030;SDS011;16122;50.236;11.734;2022-10-16T07:03:23;4.63;;;0.80;;
29030;SDS011;16122;50.236;11.734;2022-10-16T07:05:49;1.90;;;0.90;;
29030;SDS011;16122;50.236;11.734;2022-10-16T07:08:15;2.10;;;0.83;;
29030;SDS011;16122;50.236;11.734;2022-10-16T07:10:41;0.90;;;0.70;;
29030;SDS011;16122;50.236;11.734;2022-10-16T07:13:06;1.53;;;0.80;;
29030;SDS011;16122;50.236;11.734;2022-10-16T07:15:32;0.90;;;0.70;;
29030;SDS011;16122;50.236;11.734;2022-10-16T07:17:59;0.90;;;0.77;;
29030;SDS011;16122;50.236;11.734;2022-10-16T07:20:25;3.03;;;1.00;;
29030;SDS011;16122;50.236;11.734;2022-10-16T07:22:51;0.80;;;0.67;;
29030;SDS011;16122;50.236;11.734;2022-10-16T07:25:17;0.70;;;0.70;;
29030;SDS011;16122;50.236;11.734;2022-10-16T07:27:44;1.10;;;0.80;;
29030;SDS011;16122;50.236;11.734;2022-10-16T07:30:09;0.90;;;0.60;;
29030;SDS011;16122;50.236;11.734;2022-10-16T07:32:35;1.07;;;0.70;;
29030;SDS011;16122;50.236;11.734;2022-10-16T07:35:01;1.03;;;0.80;;
29030;SDS011;16122;50.236;11.734;2022-10-16T07:37:27;0.73;;;0.70;;
29030;SDS011;16122;50.236;11.734;2022-10-16T07:39:53;1.77;;;0.73;;
29030;SDS011;16122;50.236;11.734;2022-10-16T07:42:19;0.70;;;0.63;;
29030;SDS011;16122;50.236;11.734;2022-10-16T07:44:45;1.30;;;0.67;;
29030;SDS011;16122;50.236;11.734;2022-10-16T07:47:12;2.63;;;0.67;;
29030;SDS011;16122;50.236;11.734;2022-10-16T07:49:37;0.80;;;0.77;;
29030;SDS011;16122;50.236;11.734;2022-10-16T07:52:03;1.17;;;0.80;;
29030;SDS011;16122;50.236;11.734;2022-10-16T07:54:29;3.00;;;0.73;;
29030;SDS011;16122;50.236;11.734;2022-10-16T07:56:55;1.00;;;0.63;;
29030;SDS011;16122;50.236;11.734;2022-10-16T07:59:21;1.20;;;0.70;;
29030;SDS011;16122;50.236;11.734;2022-10-16T08:01:48;0.73;;;0.63;;
29030;SDS011;16122;50.236;11.734;2022-10-16T08:04:14;1.00;;;0.90;;
29030;SDS011;16122;50.236;11.734;2022-10-16T08:06:41;1.20;;;0.73;;
29030;SDS011;16122;50.236;11.734;2022-10-16T08:09:07;5.00;;;0.80;;
29030;SDS011;16122;50.236;11.734;2022-10-16T08:11:33;1.60;;;0.73;;
29030;SDS011;16122;50.236;11.734;2022-10-16T08:13:59;1.50;;;0.63;;
29030;SDS011;16122;50.236;11.734;2022-10-16T08:16:25;0.80;;;0.70;;
29030;SDS011;16122;50.236;11.734;2022-10-16T08:18:51;1.13;;;0.60;;
29030;SDS011;16122;50.236;11.734;2022-10-16T08:21:18;1.10;;;0.80;;
29030;SDS011;16122;50.236;11.734;2022-10-16T08:23:46;1.53;;;0.70;;
29030;SDS011;16122;50.236;11.734;2022-10-16T08:26:12;2.73;;;0.70;;
29030;SDS011;16122;50.236;11.734;2022-10-16T08:28:38;1.00;;;0.70;;
29030;SDS011;16122;50.236;11.734;2022-10-16T08:31:08;0.70;;;0.70;;
29030;SDS011;16122;50.236;11.734;2022-10-16T08:33:38;1.13;;;0.70;;
29030;SDS011;16122;50.236;11.734;2022-10-16T08:36:05;2.63;;;0.90;;
29030;SDS011;16122;50.236;11.734;2022-10-16T08:38:32;0.77;;;0.70;;
29030;SDS011;16122;50.236;11.734;2022-10-16T08:49:21;2.33;;;0.70;;
29030;SDS011;16122;50.236;11.734;2022-10-16T08:51:49;2.60;;;0.80;;
29030;SDS011;16122;50.236;11.734;2022-10-16T08:56:50;1.43;;;0.90;;
29030;SDS011;16122;50.236;11.734;2022-10-16T08:59:19;0.80;;;0.70;;
29030;SDS011;16122;50.236;11.734;2022-10-16T09:01:46;1.40;;;1.03;;
29030;SDS011;16122;50.236;11.734;2022-10-16T09:04:26;2.17;;;1.00;;
29030;SDS011;16122;50.236;11.734;2022-10-16T09:22:42;6.53;;;1.57;;
29030;SDS011;16122;50.236;11.734;2022-10-16T09:25:15;0.80;;;0.80;;
29030;SDS011;16122;50.236;11.734;2022-10-16T09:27:45;2.10;;;1.00;;
29030;SDS011;16122;50.236;11.734;2022-10-16T09:30:14;1.83;;;1.00;;
29030;SDS011;16122;50.236;11.734;2022-10-16T09:32:43;17.60;;;5.07;;
29030;SDS011;16122;50.236;11.734;2022-10-16T09:35:15;95.17;;;31.27;;
29030;SDS011;16122;50.236;11.734;2022-10-16T09:37:45;52.60;;;20.30;;
29030;SDS011;16122;50.236;11.734;2022-10-16T09:45:53;25.37;;;7.90;;
29030;SDS011;16122;50.236;11.734;2022-10-16T09:48:23;21.27;;;8.33;;
29030;SDS011;16122;50.236;11.734;2022-10-16T09:51:37;15.80;;;6.60;;
29030;SDS011;16122;50.236;11.734;2022-10-16T09:56:35;16.07;;;6.37;;
29030;SDS011;16122;50.236;11.734;2022-10-16T09:59:10;19.53;;;5.97;;
29030;SDS011;16122;50.236;11.734;2022-10-16T10:04:17;33.00;;;7.10;;
29030;SDS011;16122;50.236;11.734;2022-10-16T10:06:48;22.33;;;6.40;;
29030;SDS011;16122;50.236;11.734;2022-10-16T10:12:00;15.93;;;5.47;;
29030;SDS011;16122;50.236;11.734;2022-10-16T10:19:37;15.67;;;6.13;;
29030;SDS011;16122;50.236;11.734;2022-10-16T10:22:30;14.60;;;5.40;;
29030;SDS011;16122;50.236;11.734;2022-10-16T10:30:25;11.10;;;4.70;;
29030;SDS011;16122;50.236;11.734;2022-10-16T10:35:56;11.90;;;5.37;;
29030;SDS011;16122;50.236;11.734;2022-10-16T10:56:38;9.40;;;4.37;;
29030;SDS011;16122;50.236;11.734;2022-10-16T11:01:18;16.00;;;4.10;;
29030;SDS011;16122;50.236;11.734;2022-10-16T11:03:57;11.90;;;4.50;;
29030;SDS011;16122;50.236;11.734;2022-10-16T11:09:34;9.40;;;3.80;;
29030;SDS011;16122;50.236;11.734;2022-10-16T11:12:40;8.23;;;4.10;;
29030;SDS011;16122;50.236;11.734;2022-10-16T11:15:20;14.77;;;4.00;;
29030;SDS011;16122;50.236;11.734;2022-10-16T11:20:31;7.37;;;2.83;;
29030;SDS011;16122;50.236;11.734;2022-10-16T11:25:56;7.43;;;3.40;;
29030;SDS011;16122;50.236;11.734;2022-10-16T11:28:27;7.37;;;3.27;;
29030;SDS011;16122;50.236;11.734;2022-10-16T11:36:44;10.77;;;3.50;;
29030;SDS011;16122;50.236;11.734;2022-10-16T11:39:24;9.60;;;3.40;;
29030;SDS011;16122;50.236;11.734;2022-10-16T11:41:52;10.80;;;3.30;;
29030;SDS011;16122;50.236;11.734;2022-10-16T11:49:34;6.17;;;3.30;;
29030;SDS011;16122;50.236;11.734;2022-10-16T11:52:15;7.63;;;2.87;;
29030;SDS011;16122;50.236;11.734;2022-10-16T11:54:53;5.17;;;2.93;;
29030;SDS011;16122;50.236;11.734;2022-10-16T11:57:40;7.13;;;3.20;;
29030;SDS011;16122;50.236;11.734;2022-10-16T12:00:47;5.30;;;2.93;;
29030;SDS011;16122;50.236;11.734;2022-10-16T12:05:50;7.90;;;3.40;;
29030;SDS011;16122;50.236;11.734;2022-10-16T12:08:35;7.53;;;2.90;;
29030;SDS011;16122;50.236;11.734;2022-10-16T12:11:23;6.73;;;2.70;;
29030;SDS011;16122;50.236;11.734;2022-10-16T12:14:20;5.37;;;3.10;;
29030;SDS011;16122;50.236;11.734;2022-10-16T12:16:58;7.23;;;2.93;;
29030;SDS011;16122;50.236;11.734;2022-10-16T12:19:31;5.70;;;2.53;;
29030;SDS011;16122;50.236;11.734;2022-10-16T12:22:01;7.50;;;2.83;;
29030;SDS011;16122;50.236;11.734;2022-10-16T12:24:38;4.43;;;2.20;;
29030;SDS011;16122;50.236;11.734;2022-10-16T12:27:22;4.90;;;2.80;;
29030;SDS011;16122;50.236;11.734;2022-10-16T12:29:54;6.47;;;3.03;;
29030;SDS011;16122;50.236;11.734;2022-10-16T12:32:35;8.30;;;3.07;;
29030;SDS011;16122;50.236;11.734;2022-10-16T12:35:04;6.67;;;2.70;;
29030;SDS011;16122;50.236;11.734;2022-10-16T12:37:42;6.43;;;2.90;;
29030;SDS011;16122;50.236;11.734;2022-10-16T12:40:13;5.43;;;2.43;;
29030;SDS011;16122;50.236;11.734;2022-10-16T12:42:51;6.00;;;2.53;;
29030;SDS011;16122;50.236;11.734;2022-10-16T12:47:49;4.30;;;2.40;;
29030;SDS011;16122;50.236;11.734;2022-10-16T12:52:59;5.60;;;2.80;;
29030;SDS011;16122;50.236;11.734;2022-10-16T12:55:27;2.20;;;2.00;;
29030;SDS011;16122;50.236;11.734;2022-10-16T12:58:12;9.50;;;2.63;;
29030;SDS011;16122;50.236;11.734;2022-10-16T13:00:44;5.47;;;2.67;;
29030;SDS011;16122;50.236;11.734;2022-10-16T13:20:21;4.27;;;2.10;;
29030;SDS011;16122;50.236;11.734;2022-10-16T13:28:37;4.23;;;1.87;;
29030;SDS011;16122;50.236;11.734;2022-10-16T13:31:04;5.47;;;2.10;;
29030;SDS011;16122;50.236;11.734;2022-10-16T13:33:32;3.53;;;1.70;;
29030;SDS011;16122;50.236;11.734;2022-10-16T13:36:00;5.97;;;2.57;;
29030;SDS011;16122;50.236;11.734;2022-10-16T13:38:28;6.57;;;2.30;;
29030;SDS011;16122;50.236;11.734;2022-10-16T13:43:33;2.90;;;1.93;;
29030;SDS011;16122;50.236;11.734;2022-10-16T13:46:07;4.90;;;1.97;;
29030;SDS011;16122;50.236;11.734;2022-10-16T13:48:38;2.47;;;2.27;;
29030;SDS011;16122;50.236;11.734;2022-10-16T13:51:14;3.30;;;2.30;;
29030;SDS011;16122;50.236;11.734;2022-10-16T13:53:41;2.73;;;1.70;;
29030;SDS011;16122;50.236;11.734;2022-10-16T13:56:15;3.27;;;2.00;;
29030;SDS011;16122;50.236;11.734;2022-10-16T13:58:43;3.90;;;2.00;;
29030;SDS011;16122;50.236;11.734;2022-10-16T14:01:25;2.17;;;2.00;;
29030;SDS011;16122;50.236;11.734;2022-10-16T14:04:03;4.93;;;2.20;;
29030;SDS011;16122;50.236;11.734;2022-10-16T14:06:32;4.33;;;2.10;;
29030;SDS011;16122;50.236;11.734;2022-10-16T14:09:07;4.13;;;1.77;;
29030;SDS011;16122;50.236;11.734;2022-10-16T14:11:44;2.27;;;1.70;;
29030;SDS011;16122;50.236;11.734;2022-10-16T14:14:18;4.10;;;1.73;;
29030;SDS011;16122;50.236;11.734;2022-10-16T14:16:45;5.30;;;1.70;;
29030;SDS011;16122;50.236;11.734;2022-10-16T14:19:14;2.80;;;2.17;;
29030;SDS011;16122;50.236;11.734;2022-10-16T14:21:48;3.63;;;1.97;;
29030;SDS011;16122;50.236;11.734;2022-10-16T14:24:25;2.73;;;1.70;;
29030;SDS011;16122;50.236;11.734;2022-10-16T14:26:52;3.57;;;2.27;;
29030;SDS011;16122;50.236;11.734;2022-10-16T14:29:21;3.30;;;1.87;;
29030;SDS011;16122;50.236;11.734;2022-10-16T14:31:56;3.60;;;2.30;;
29030;SDS011;16122;50.236;11.734;2022-10-16T14:34:42;4.93;;;2.30;;
29030;SDS011;16122;50.236;11.734;2022-10-16T14:37:24;3.63;;;1.70;;
29030;SDS011;16122;50.236;11.734;2022-10-16T14:39:52;4.33;;;1.70;;
29030;SDS011;16122;50.236;11.734;2022-10-16T14:42:19;2.70;;;1.60;;
29030;SDS011;16122;50.236;11.734;2022-10-16T14:44:49;2.57;;;1.90;;
29030;SDS011;16122;50.236;11.734;2022-10-16T14:47:20;3.10;;;2.03;;
29030;SDS011;16122;50.236;11.734;2022-10-16T14:49:53;2.17;;;1.90;;
29030;SDS011;16122;50.236;11.734;2022-10-16T14:52:21;4.70;;;1.53;;
29030;SDS011;16122;50.236;11.734;2022-10-16T14:54:50;3.53;;;1.87;;
29030;SDS011;16122;50.236;11.734;2022-10-16T14:57:20;2.70;;;1.73;;
29030;SDS011;16122;50.236;11.734;2022-10-16T14:59:49;3.40;;;1.83;;
29030;SDS011;16122;50.236;11.734;2022-10-16T15:02:31;3.33;;;1.90;;
29030;SDS011;16122;50.236;11.734;2022-10-16T15:05:01;2.50;;;1.73;;
29030;SDS011;16122;50.236;11.734;2022-10-16T15:07:36;5.30;;;1.70;;
29030;SDS011;16122;50.236;11.734;2022-10-16T15:10:02;4.07;;;1.97;;
29030;SDS011;16122;50.236;11.734;2022-10-16T15:12:29;3.20;;;1.73;;
29030;SDS011;16122;50.236;11.734;2022-10-16T15:14:56;4.47;;;2.07;;
29030;SDS011;16122;50.236;11.734;2022-10-16T15:17:21;3.33;;;2.20;;
29030;SDS011;16122;50.236;11.734;2022-10-16T15:19:47;3.10;;;1.60;;
29030;SDS011;16122;50.236;11.734;2022-10-16T15:22:14;2.10;;;1.37;;
29030;SDS011;16122;50.236;11.734;2022-10-16T15:24:40;4.43;;;2.00;;
29030;SDS011;16122;50.236;11.734;2022-10-16T15:27:06;7.63;;;1.90;;
29030;SDS011;16122;50.236;11.734;2022-10-16T15:29:31;5.60;;;2.10;;
29030;SDS011;16122;50.236;11.734;2022-10-16T15:31:57;4.00;;;2.03;;
29030;SDS011;16122;50.236;11.734;2022-10-16T15:34:23;2.03;;;1.50;;
29030;SDS011;16122;50.236;11.734;2022-10-16T15:36:49;3.60;;;1.70;;
29030;SDS011;16122;50.236;11.734;2022-10-16T15:39:16;4.30;;;1.47;;
29030;SDS011;16122;50.236;11.734;2022-10-16T15:41:44;3.00;;;1.83;;
29030;SDS011;16122;50.236;11.734;2022-10-16T15:44:18;2.90;;;1.60;;
29030;SDS011;16122;50.236;11.734;2022-10-16T15:46:45;4.90;;;1.67;;
29030;SDS011;16122;50.236;11.734;2022-10-16T15:49:11;2.30;;;1.80;;
29030;SDS011;16122;50.236;11.734;2022-10-16T15:51:38;3.50;;;1.87;;
29030;SDS011;16122;50.236;11.734;2022-10-16T15:54:05;4.83;;;2.17;;
29030;SDS011;16122;50.236;11.734;2022-10-16T15:56:31;4.37;;;1.80;;
29030;SDS011;16122;50.236;11.734;2022-10-16T15:58:59;11.80;;;2.63;;
29030;SDS011;16122;50.236;11.734;2022-10-16T16:01:27;6.50;;;2.53;;
29030;SDS011;16122;50.236;11.734;2022-10-16T16:03:54;6.33;;;2.90;;
29030;SDS011;16122;50.236;11.734;2022-10-16T16:06:21;20.13;;;3.13;;
29030;SDS011;16122;50.236;11.734;2022-10-16T16:08:49;7.47;;;4.67;;
29030;SDS011;16122;50.236;11.734;2022-10-16T16:11:16;8.60;;;4.13;;
29030;SDS011;16122;50.236;11.734;2022-10-16T16:13:42;10.30;;;3.67;;
29030;SDS011;16122;50.236;11.734;2022-10-16T16:16:09;9.63;;;2.73;;
29030;SDS011;16122;50.236;11.734;2022-10-16T16:18:39;9.23;;;3.40;;
29030;SDS011;16122;50.236;11.734;2022-10-16T16:21:06;10.67;;;2.60;;
29030;SDS011;16122;50.236;11.734;2022-10-16T16:23:33;5.83;;;2.60;;
29030;SDS011;16122;50.236;11.734;2022-10-16T16:28:35;5.07;;;2.80;;
29030;SDS011;16122;50.236;11.734;2022-10-16T16:31:02;5.70;;;2.80;;
29030;SDS011;16122;50.236;11.734;2022-10-16T16:33:29;7.40;;;2.60;;
29030;SDS011;16122;50.236;11.734;2022-10-16T16:35:57;6.50;;;3.10;;
29030;SDS011;16122;50.236;11.734;2022-10-16T16:38:24;8.17;;;2.27;;
29030;SDS011;16122;50.236;11.734;2022-10-16T16:40:49;3.93;;;2.30;;
29030;SDS011;16122;50.236;11.734;2022-10-16T16:43:17;4.53;;;2.33;;
29030;SDS011;16122;50.236;11.734;2022-10-16T16:45:43;5.87;;;2.63;;
29030;SDS011;16122;50.236;11.734;2022-10-16T16:48:09;5.53;;;1.77;;
29030;SDS011;16122;50.236;11.734;2022-10-16T16:50:36;7.60;;;2.47;;
29030;SDS011;16122;50.236;11.734;2022-10-16T16:53:02;7.90;;;2.40;;
29030;SDS011;16122;50.236;11.734;2022-10-16T16:55:28;4.73;;;2.30;;
29030;SDS011;16122;50.236;11.734;2022-10-16T16:57:54;5.20;;;2.13;;
29030;SDS011;16122;50.236;11.734;2022-10-16T17:00:22;6.67;;;2.00;;
29030;SDS011;16122;50.236;11.734;2022-10-16T17:02:48;4.30;;;1.80;;
29030;SDS011;16122;50.236;11.734;2022-10-16T17:05:15;4.97;;;1.97;;
29030;SDS011;16122;50.236;11.734;2022-10-16T17:07:42;2.53;;;2.00;;
29030;SDS011;16122;50.236;11.734;2022-10-16T17:10:09;4.30;;;2.20;;
29030;SDS011;16122;50.236;11.734;2022-10-16T17:12:35;4.07;;;2.23;;